createdAt,value
2022-09-07T00:00:57.228Z,20.07
2022-09-07T00:01:58.591Z,20.04
2022-09-07T00:03:00.114Z,20.01
2022-09-07T00:04:01.672Z,20.02
2022-09-07T00:05:03.188Z,20.08
2022-09-07T00:06:06.724Z,20.09
2022-09-07T00:07:08.108Z,20.05
2022-09-07T00:08:09.606Z,20.05
2022-09-07T00:09:10.974Z,20.02
2022-09-07T00:10:12.388Z,20.04
2022-09-07T00:11:15.331Z,20.08
2022-09-07T00:12:16.777Z,20.08
2022-09-07T00:13:18.133Z,20.08
2022-09-07T00:14:19.523Z,20.11
2022-09-07T00:15:22.441Z,20.07
2022-09-07T00:16:27.814Z,20.05
2022-09-07T00:17:30.447Z,20.07
2022-09-07T00:18:31.874Z,20.03
2022-09-07T00:19:33.241Z,20.01
2022-09-07T00:20:34.645Z,19.98
2022-09-07T00:21:36.827Z,19.95
2022-09-07T00:22:38.400Z,19.91
2022-09-07T00:23:40.024Z,19.88
2022-09-07T00:24:41.420Z,19.86
2022-09-07T00:25:42.758Z,19.84
2022-09-07T00:26:44.123Z,19.81
2022-09-07T00:27:45.489Z,19.79
2022-09-07T00:28:47.181Z,19.78
2022-09-07T00:29:48.568Z,19.78
2022-09-07T00:30:49.916Z,19.77
2022-09-07T00:31:51.347Z,19.75
2022-09-07T00:32:52.799Z,19.73
2022-09-07T00:33:54.454Z,19.71
2022-09-07T00:34:55.862Z,19.69
2022-09-07T00:35:59.735Z,19.68
2022-09-07T00:37:01.107Z,19.67
2022-09-07T00:38:02.490Z,19.66
2022-09-07T00:39:04.008Z,19.64
2022-09-07T00:40:05.673Z,19.61
2022-09-07T00:41:07.219Z,19.59
2022-09-07T00:42:08.573Z,19.55
2022-09-07T00:43:14.867Z,19.53
2022-09-07T00:44:35.184Z,19.50
2022-09-07T00:45:36.571Z,19.49
2022-09-07T00:46:38.135Z,19.48
2022-09-07T00:47:45.240Z,19.45
2022-09-07T00:49:09.841Z,19.42
2022-09-07T00:50:17.150Z,19.39
2022-09-07T00:51:21.117Z,19.38
2022-09-07T00:52:23.360Z,19.36
2022-09-07T00:53:31.862Z,19.35
2022-09-07T00:54:38.077Z,19.34
2022-09-07T00:55:40.788Z,19.32
2022-09-07T00:56:43.575Z,19.31
2022-09-07T00:57:47.435Z,19.28
2022-09-07T00:58:48.889Z,19.32
2022-09-07T00:59:52.545Z,19.31
2022-09-07T01:00:53.957Z,19.29
2022-09-07T01:01:55.502Z,19.25
2022-09-07T01:02:58.291Z,19.22
2022-09-07T01:04:00.772Z,19.17
2022-09-07T01:05:09.606Z,19.14
2022-09-07T01:06:19.240Z,19.09
2022-09-07T01:07:20.619Z,19.05
2022-09-07T01:08:22.794Z,19.02
2022-09-07T01:09:26.193Z,19.01
2022-09-07T01:10:28.996Z,18.99
2022-09-07T01:11:31.091Z,18.99
2022-09-07T01:12:32.502Z,18.97
2022-09-07T01:13:33.878Z,18.97
2022-09-07T01:14:36.879Z,18.93
2022-09-07T01:15:38.264Z,18.90
2022-09-07T01:16:42.156Z,18.89
2022-09-07T01:17:55.724Z,18.89
2022-09-07T01:19:15.465Z,18.86
2022-09-07T01:20:22.598Z,18.88
2022-09-07T01:21:36.024Z,18.84
2022-09-07T01:22:56.321Z,18.82
2022-09-07T01:24:00.268Z,18.82
2022-09-07T01:25:09.494Z,18.79
2022-09-07T01:26:29.319Z,18.81
2022-09-07T01:27:30.653Z,18.82
2022-09-07T01:28:33.571Z,18.83
2022-09-07T01:30:03.920Z,18.82
2022-09-07T01:31:11.587Z,18.82
2022-09-07T01:32:18.835Z,18.81
2022-09-07T01:33:20.199Z,18.79
2022-09-07T01:34:23.048Z,18.82
2022-09-07T01:35:45.067Z,18.77
2022-09-07T01:36:49.292Z,18.79
2022-09-07T01:37:57.154Z,18.82
2022-09-07T01:39:03.002Z,18.84
2022-09-07T01:40:15.668Z,18.82
2022-09-07T01:41:22.709Z,18.82
2022-09-07T01:42:27.420Z,18.83
2022-09-07T01:43:31.388Z,18.83
2022-09-07T01:44:35.475Z,18.85
2022-09-07T01:45:39.802Z,18.85
2022-09-07T01:46:49.673Z,18.86
2022-09-07T01:47:54.476Z,18.87
2022-09-07T01:48:59.729Z,18.89
2022-09-07T01:50:10.552Z,18.88
2022-09-07T01:51:12.396Z,18.89
2022-09-07T01:52:16.211Z,18.88
2022-09-07T01:53:21.701Z,18.89
2022-09-07T01:54:25.887Z,18.89
2022-09-07T01:55:29.989Z,18.90
2022-09-07T01:56:33.728Z,18.91
2022-09-07T01:57:40.500Z,18.92
2022-09-07T01:58:42.031Z,18.94
2022-09-07T01:59:50.492Z,18.94
2022-09-07T02:00:58.954Z,18.94
2022-09-07T02:02:00.327Z,18.92
2022-09-07T02:03:07.720Z,18.92
2022-09-07T02:04:16.767Z,18.91
2022-09-07T02:05:23.410Z,18.91
2022-09-07T02:06:38.281Z,18.91
2022-09-07T02:07:46.367Z,18.92
2022-09-07T02:08:51.652Z,18.95
2022-09-07T02:10:05.379Z,18.95
2022-09-07T02:11:09.924Z,18.94
2022-09-07T02:12:17.432Z,18.95
2022-09-07T02:13:23.893Z,18.93
2022-09-07T02:14:28.748Z,18.93
2022-09-07T02:15:38.887Z,18.93
2022-09-07T02:16:46.005Z,18.93
2022-09-07T02:17:52.381Z,18.95
2022-09-07T02:18:56.267Z,18.95
2022-09-07T02:20:00.626Z,18.98
2022-09-07T02:21:03.532Z,19.01
2022-09-07T02:22:07.667Z,19.00
2022-09-07T02:23:13.995Z,19.03
2022-09-07T02:24:18.214Z,19.02
2022-09-07T02:25:22.528Z,19.10
2022-09-07T02:26:25.340Z,19.10
2022-09-07T02:27:30.283Z,19.13
2022-09-07T02:28:33.335Z,19.14
2022-09-07T02:29:34.972Z,19.14
2022-09-07T02:30:36.886Z,19.12
2022-09-07T02:31:38.260Z,19.11
2022-09-07T02:32:39.712Z,19.09
2022-09-07T02:33:41.315Z,19.10
2022-09-07T02:34:42.719Z,19.09
2022-09-07T02:35:44.272Z,19.09
2022-09-07T02:36:47.857Z,19.05
2022-09-07T02:37:50.789Z,19.07
2022-09-07T02:38:52.529Z,19.07
2022-09-07T02:39:54.208Z,19.06
2022-09-07T02:40:56.717Z,19.05
2022-09-07T02:41:58.084Z,19.04
2022-09-07T02:43:01.044Z,19.02
2022-09-07T02:44:04.412Z,19.01
2022-09-07T02:45:08.076Z,19.01
2022-09-07T02:46:18.252Z,18.99
2022-09-07T02:47:37.632Z,18.97
2022-09-07T02:48:48.016Z,18.97
2022-09-07T02:50:08.184Z,18.97
2022-09-07T02:51:15.318Z,19.04
2022-09-07T02:52:35.107Z,19.02
2022-09-07T02:53:45.223Z,18.99
2022-09-07T02:55:02.664Z,18.98
2022-09-07T02:56:16.584Z,18.96
2022-09-07T02:57:30.499Z,18.94
2022-09-07T02:58:40.794Z,18.95
2022-09-07T02:59:48.172Z,18.95
2022-09-07T03:01:02.488Z,18.94
2022-09-07T03:02:07.293Z,18.94
2022-09-07T03:03:08.688Z,18.94
2022-09-07T03:04:33.326Z,18.91
2022-09-07T03:05:43.877Z,18.94
2022-09-07T03:06:50.377Z,18.92
2022-09-07T03:07:51.727Z,18.93
2022-09-07T03:08:55.530Z,18.93
2022-09-07T03:09:57.749Z,18.95
2022-09-07T03:10:59.607Z,18.98
2022-09-07T03:12:04.443Z,18.99
2022-09-07T03:13:05.875Z,18.99
2022-09-07T03:14:12.906Z,19.00
2022-09-07T03:15:15.702Z,19.02
2022-09-07T03:16:17.160Z,19.01
2022-09-07T03:17:18.607Z,19.04
2022-09-07T03:18:20.413Z,19.05
2022-09-07T03:19:21.780Z,19.06
2022-09-07T03:20:23.482Z,19.06
2022-09-07T03:21:24.823Z,19.04
2022-09-07T03:22:26.181Z,19.02
2022-09-07T03:23:27.560Z,19.01
2022-09-07T03:24:29.098Z,19.00
2022-09-07T03:25:30.509Z,18.98
2022-09-07T03:26:31.872Z,18.97
2022-09-07T03:27:33.462Z,18.96
2022-09-07T03:28:34.837Z,18.93
2022-09-07T03:29:40.187Z,18.92
2022-09-07T03:30:43.950Z,18.91
2022-09-07T03:31:45.613Z,18.89
2022-09-07T03:32:47.040Z,18.88
2022-09-07T03:33:48.395Z,18.86
2022-09-07T03:34:49.770Z,18.83
2022-09-07T03:36:00.881Z,18.81
2022-09-07T03:37:02.239Z,18.79
2022-09-07T03:38:03.631Z,18.77
2022-09-07T03:39:05.535Z,18.72
2022-09-07T03:40:08.039Z,18.72
2022-09-07T03:41:09.541Z,18.69
2022-09-07T03:42:10.912Z,18.69
2022-09-07T03:43:12.255Z,18.67
2022-09-07T03:44:13.616Z,18.64
2022-09-07T03:45:15.024Z,18.63
2022-09-07T03:46:16.615Z,18.61
2022-09-07T03:47:18.352Z,18.60
2022-09-07T03:48:19.723Z,18.60
2022-09-07T03:49:21.096Z,18.56
2022-09-07T03:50:22.458Z,18.55
2022-09-07T03:51:23.924Z,18.54
2022-09-07T03:52:25.318Z,18.52
2022-09-07T03:53:26.877Z,18.51
2022-09-07T03:54:28.245Z,18.48
2022-09-07T03:55:29.619Z,18.47
2022-09-07T03:56:30.995Z,18.47
2022-09-07T03:57:32.373Z,18.45
2022-09-07T03:58:34.065Z,18.43
2022-09-07T03:59:35.708Z,18.42
2022-09-07T04:00:40.835Z,18.43
2022-09-07T04:01:42.288Z,18.44
2022-09-07T04:02:43.805Z,18.42
2022-09-07T04:03:45.740Z,18.40
2022-09-07T04:04:47.147Z,18.39
2022-09-07T04:05:48.496Z,18.39
2022-09-07T04:06:49.911Z,18.38
2022-09-07T04:07:51.271Z,18.37
2022-09-07T04:08:52.614Z,18.37
2022-09-07T04:09:53.991Z,18.37
2022-09-07T04:10:56.092Z,18.37
2022-09-07T04:11:57.450Z,18.37
2022-09-07T04:12:58.823Z,18.36
2022-09-07T04:14:00.325Z,18.36
2022-09-07T04:15:01.773Z,18.35
2022-09-07T04:16:09.800Z,18.36
2022-09-07T04:17:11.196Z,18.38
2022-09-07T04:18:12.586Z,18.38
2022-09-07T04:19:13.977Z,18.37
2022-09-07T04:20:15.375Z,18.39
2022-09-07T04:21:17.886Z,18.38
2022-09-07T04:22:19.265Z,18.37
2022-09-07T04:23:20.663Z,18.36
2022-09-07T04:24:22.030Z,18.36
2022-09-07T04:25:23.452Z,18.31
2022-09-07T04:26:25.896Z,18.33
2022-09-07T04:27:27.250Z,18.31
2022-09-07T04:28:28.646Z,18.31
2022-09-07T04:29:30.101Z,18.32
2022-09-07T04:30:33.924Z,18.34
2022-09-07T04:31:35.762Z,18.34
2022-09-07T04:32:37.188Z,18.35
2022-09-07T04:33:38.606Z,18.37
2022-09-07T04:34:39.997Z,18.38
2022-09-07T04:35:41.978Z,18.37
2022-09-07T04:36:43.351Z,18.36
2022-09-07T04:37:44.877Z,18.36
2022-09-07T04:38:46.413Z,18.36
2022-09-07T04:39:47.875Z,18.37
2022-09-07T04:40:49.282Z,18.35
2022-09-07T04:41:50.660Z,18.34
2022-09-07T04:42:52.032Z,18.37
2022-09-07T04:43:54.943Z,18.35
2022-09-07T04:44:56.683Z,18.35
2022-09-07T04:46:01.418Z,18.41
2022-09-07T04:47:02.847Z,18.42
2022-09-07T04:48:04.935Z,18.42
2022-09-07T04:49:07.845Z,18.40
2022-09-07T04:50:09.434Z,18.38
2022-09-07T04:51:11.187Z,18.36
2022-09-07T04:52:12.548Z,18.37
2022-09-07T04:53:13.927Z,18.40
2022-09-07T04:54:15.330Z,18.42
2022-09-07T04:55:16.807Z,18.46
2022-09-07T04:56:19.248Z,18.49
2022-09-07T04:57:20.626Z,18.49
2022-09-07T04:58:21.968Z,18.45
2022-09-07T04:59:23.337Z,18.42
2022-09-07T05:00:24.766Z,18.41
2022-09-07T05:01:26.338Z,18.40
2022-09-07T05:02:27.799Z,18.42
2022-09-07T05:03:30.029Z,18.42
2022-09-07T05:04:31.379Z,18.41
2022-09-07T05:05:35.683Z,18.39
2022-09-07T05:06:37.075Z,18.38
2022-09-07T05:07:38.427Z,18.36
2022-09-07T05:08:44.360Z,18.34
2022-09-07T05:09:46.764Z,18.33
2022-09-07T05:10:51.795Z,18.32
2022-09-07T05:11:53.183Z,18.32
2022-09-07T05:12:54.565Z,18.31
2022-09-07T05:13:59.612Z,18.32
2022-09-07T05:15:01.032Z,18.33
2022-09-07T05:16:08.036Z,18.34
2022-09-07T05:17:09.497Z,18.36
2022-09-07T05:18:10.877Z,18.37
2022-09-07T05:19:13.017Z,18.42
2022-09-07T05:20:18.416Z,18.46
2022-09-07T05:21:22.714Z,18.50
2022-09-07T05:22:24.113Z,18.56
2022-09-07T05:23:25.468Z,18.60
2022-09-07T05:24:26.824Z,18.65
2022-09-07T05:25:28.600Z,18.66
2022-09-07T05:26:31.335Z,18.69
2022-09-07T05:27:32.728Z,18.72
2022-09-07T05:28:34.535Z,18.79
2022-09-07T05:31:19.453Z,18.86
2022-09-07T05:32:21.427Z,18.95
2022-09-07T05:33:22.833Z,18.98
2022-09-07T05:34:32.319Z,19.03
2022-09-07T05:35:34.369Z,19.02
2022-09-07T05:36:35.766Z,19.01
2022-09-07T05:37:37.131Z,19.00
2022-09-07T05:38:38.491Z,19.02
2022-09-07T05:39:39.936Z,19.03
2022-09-07T05:40:41.336Z,19.06
2022-09-07T05:41:42.704Z,19.07
2022-09-07T05:42:44.098Z,19.08
2022-09-07T05:45:07.306Z,19.13
2022-09-07T05:46:09.212Z,19.16
2022-09-07T05:47:10.841Z,19.16
2022-09-07T05:48:12.245Z,19.20
2022-09-07T05:49:13.633Z,19.21
2022-09-07T05:50:14.984Z,19.23
2022-09-07T05:51:16.363Z,19.26
2022-09-07T05:52:17.758Z,19.30
2022-09-07T05:53:19.700Z,19.33
2022-09-07T05:54:21.075Z,19.36
2022-09-07T05:55:29.958Z,19.37
2022-09-07T05:56:33.969Z,19.40
2022-09-07T05:57:35.334Z,19.45
2022-09-07T05:58:37.043Z,19.48
2022-09-07T05:59:38.534Z,19.50
2022-09-07T06:00:39.890Z,19.54
2022-09-07T06:01:41.293Z,19.57
2022-09-07T06:02:42.795Z,19.61
2022-09-07T06:03:44.393Z,19.65
2022-09-07T06:04:45.759Z,19.68
2022-09-07T06:05:47.129Z,19.71
2022-09-07T06:07:17.731Z,19.76
2022-09-07T06:08:09.918Z,19.81
2022-09-07T06:09:11.363Z,19.83
2022-09-07T06:11:34.269Z,19.92
2022-09-07T06:12:35.688Z,19.98
2022-09-07T06:13:37.136Z,20.05
2022-09-07T06:14:38.494Z,20.10
2022-09-07T06:15:39.889Z,20.13
2022-09-07T06:16:41.312Z,20.17
2022-09-07T06:17:43.137Z,20.20
2022-09-07T06:18:45.519Z,20.22
2022-09-07T06:19:46.903Z,20.26
2022-09-07T06:20:48.295Z,20.30
2022-09-07T06:21:49.680Z,20.32
2022-09-07T06:22:51.033Z,20.36
2022-09-07T06:23:52.393Z,20.37
2022-09-07T06:24:53.743Z,20.41
2022-09-07T06:25:55.103Z,20.46
2022-09-07T06:26:56.473Z,20.51
2022-09-07T06:27:57.821Z,20.56
2022-09-07T06:28:59.212Z,20.62
2022-09-07T06:30:00.595Z,20.73
2022-09-07T06:31:06.527Z,20.87
2022-09-07T06:33:29.255Z,21.17
2022-09-07T06:34:30.595Z,21.29
2022-09-07T06:35:31.958Z,21.38
2022-09-07T06:36:33.373Z,21.50
2022-09-07T06:37:34.729Z,21.60
2022-09-07T06:38:37.200Z,21.69
2022-09-07T06:39:38.719Z,21.75
2022-09-07T06:40:40.130Z,21.86
2022-09-07T06:43:05.159Z,22.03
2022-09-07T06:44:06.535Z,22.12
2022-09-07T06:45:08.122Z,22.15
2022-09-07T06:47:30.844Z,22.17
2022-09-07T06:48:32.769Z,22.17
2022-09-07T06:49:34.232Z,22.16
2022-09-07T06:50:35.596Z,22.13
2022-09-07T06:51:36.948Z,22.09
2022-09-07T06:55:21.039Z,21.94
2022-09-07T06:56:22.644Z,21.92
2022-09-07T06:57:23.991Z,21.94
2022-09-07T06:58:25.761Z,21.95
2022-09-07T06:59:27.173Z,21.96
2022-09-07T07:00:28.530Z,21.99
2022-09-07T07:01:29.946Z,22.08
2022-09-07T07:02:32.250Z,22.10
2022-09-07T07:03:33.684Z,22.14
2022-09-07T07:04:40.197Z,22.18
2022-09-07T07:05:42.563Z,22.24
2022-09-07T07:06:43.947Z,22.30
2022-09-07T07:07:45.341Z,22.33
2022-09-07T07:08:47.311Z,22.41
2022-09-07T07:09:49.683Z,22.47
2022-09-07T07:10:51.569Z,22.51
2022-09-07T07:11:52.941Z,22.51
2022-09-07T07:12:54.706Z,22.50
2022-09-07T07:13:56.091Z,22.50
2022-09-07T07:14:57.425Z,22.50
2022-09-07T07:16:15.320Z,22.50
2022-09-07T07:17:16.746Z,22.51
2022-09-07T07:18:21.178Z,22.56
2022-09-07T07:19:25.808Z,22.54
2022-09-07T07:20:27.228Z,22.51
2022-09-07T07:21:38.349Z,22.50
2022-09-07T07:22:50.802Z,22.39
2022-09-07T07:23:52.892Z,22.39
2022-09-07T07:24:54.247Z,22.39
2022-09-07T07:25:55.885Z,22.32
2022-09-07T07:26:57.215Z,22.32
2022-09-07T07:29:21.246Z,22.32
2022-09-07T07:30:24.211Z,22.31
2022-09-07T07:31:25.952Z,22.32
2022-09-07T07:32:27.296Z,22.35
2022-09-07T07:33:29.807Z,22.32
2022-09-07T07:34:31.257Z,22.36
2022-09-07T07:35:32.614Z,22.34
2022-09-07T07:36:33.946Z,22.33
2022-09-07T07:37:36.004Z,22.32
2022-09-07T07:42:38.199Z,22.51
2022-09-07T07:43:39.811Z,22.50
2022-09-07T07:44:41.161Z,22.52
2022-09-07T07:46:01.235Z,22.53
2022-09-07T07:47:05.489Z,22.55
2022-09-07T07:48:06.860Z,22.54
2022-09-07T07:49:08.198Z,22.55
2022-09-07T07:51:31.777Z,22.62
2022-09-07T07:53:41.268Z,22.65
2022-09-07T07:54:14.104Z,22.74
2022-09-07T07:56:36.842Z,22.83
2022-09-07T07:57:38.158Z,22.81
2022-09-07T07:58:40.050Z,22.83
2022-09-07T07:59:41.374Z,22.88
2022-09-07T08:00:58.303Z,22.91
2022-09-07T08:01:59.930Z,22.95
2022-09-07T08:03:01.353Z,22.95
2022-09-07T08:04:02.845Z,23.00
2022-09-07T08:05:04.278Z,23.01
2022-09-07T08:06:05.599Z,23.05
2022-09-07T08:07:10.596Z,23.08
2022-09-07T08:08:12.609Z,23.15
2022-09-07T08:09:14.028Z,23.17
2022-09-07T08:10:15.404Z,23.20
2022-09-07T08:11:17.788Z,23.22
2022-09-07T08:12:20.006Z,23.25
2022-09-07T08:13:21.467Z,23.26
2022-09-07T08:14:23.028Z,23.33
2022-09-07T08:15:24.390Z,23.44
2022-09-07T08:16:25.830Z,23.52
2022-09-07T08:17:27.224Z,23.59
2022-09-07T08:18:28.699Z,23.61
2022-09-07T08:19:30.164Z,23.67
2022-09-07T08:20:31.584Z,23.75
2022-09-07T08:21:32.893Z,23.77
2022-09-07T08:22:34.958Z,23.80
2022-09-07T08:23:36.649Z,23.79
2022-09-07T08:24:37.974Z,23.82
2022-09-07T08:25:48.360Z,23.79
2022-09-07T08:26:49.661Z,23.79
2022-09-07T08:27:50.953Z,23.79
2022-09-07T08:28:52.279Z,23.80
2022-09-07T08:29:53.676Z,23.82
2022-09-07T08:30:55.643Z,23.84
2022-09-07T08:31:57.238Z,23.88
2022-09-07T08:32:58.623Z,23.92
2022-09-07T08:33:59.936Z,24.02
2022-09-07T08:35:01.311Z,24.06
2022-09-07T08:36:03.521Z,24.05
2022-09-07T08:37:04.822Z,24.02
2022-09-07T08:38:06.133Z,24.02
2022-09-07T08:39:07.518Z,24.05
2022-09-07T08:40:16.142Z,24.08
2022-09-07T08:41:26.388Z,24.09
2022-09-07T08:42:30.680Z,24.10
2022-09-07T08:43:48.855Z,24.12
2022-09-07T08:45:10.740Z,24.11
2022-09-07T08:46:26.423Z,24.17
2022-09-07T08:47:33.691Z,24.16
2022-09-07T08:48:35.222Z,24.17
2022-09-07T08:49:55.046Z,24.19
2022-09-07T08:51:00.851Z,24.21
2022-09-07T08:52:25.236Z,24.23
2022-09-07T08:53:26.870Z,24.25
2022-09-07T08:54:28.665Z,24.24
2022-09-07T08:55:31.484Z,24.27
2022-09-07T08:56:39.316Z,24.29
2022-09-07T08:57:44.795Z,24.38
2022-09-07T08:58:49.497Z,24.50
2022-09-07T09:00:00.729Z,24.44
2022-09-07T09:02:30.103Z,24.34
2022-09-07T09:03:33.455Z,24.35
2022-09-07T09:05:16.444Z,24.35
2022-09-07T09:06:03.935Z,24.35
2022-09-07T09:07:22.513Z,24.39
2022-09-07T09:08:26.655Z,24.46
2022-09-07T09:09:40.884Z,24.45
2022-09-07T09:10:42.217Z,24.48
2022-09-07T09:11:52.513Z,24.50
2022-09-07T09:13:12.405Z,24.55
2022-09-07T09:14:19.503Z,24.59
2022-09-07T09:15:23.488Z,24.58
2022-09-07T09:16:30.932Z,24.58
2022-09-07T09:17:35.316Z,24.57
2022-09-07T09:18:42.511Z,24.56
2022-09-07T09:19:53.324Z,24.57
2022-09-07T09:20:55.531Z,24.60
2022-09-07T09:22:12.122Z,24.63
2022-09-07T09:23:15.076Z,24.66
2022-09-07T09:24:17.986Z,24.65
2022-09-07T09:25:21.278Z,24.66
2022-09-07T09:26:24.060Z,24.69
2022-09-07T09:27:25.458Z,24.75
2022-09-07T09:28:28.950Z,24.76
2022-09-07T09:29:33.219Z,24.77
2022-09-07T09:30:34.511Z,24.77
2022-09-07T09:31:35.865Z,24.77
2022-09-07T09:32:38.835Z,24.87
2022-09-07T09:33:40.108Z,24.93
2022-09-07T09:34:59.633Z,24.93
2022-09-07T09:36:01.132Z,24.98
2022-09-07T09:37:02.444Z,25.04
2022-09-07T09:38:03.842Z,25.01
2022-09-07T09:39:25.374Z,25.00
2022-09-07T09:40:30.144Z,25.11
2022-09-07T09:41:38.989Z,25.13
2022-09-07T09:42:40.469Z,25.15
2022-09-07T09:43:46.467Z,25.16
2022-09-07T09:44:47.855Z,25.23
2022-09-07T09:47:31.972Z,25.29
2022-09-07T09:48:35.003Z,25.34
2022-09-07T09:49:37.944Z,25.39
2022-09-07T09:53:31.996Z,25.27
2022-09-07T09:54:38.986Z,25.36
2022-09-07T09:55:40.578Z,25.39
2022-09-07T09:56:43.381Z,25.38
2022-09-07T10:01:21.265Z,25.56
2022-09-07T10:04:42.208Z,25.45
2022-09-07T10:05:45.219Z,25.53
2022-09-07T10:06:53.569Z,25.54
2022-09-07T10:07:55.181Z,25.47
2022-09-07T10:08:58.204Z,25.47
2022-09-07T10:09:59.648Z,25.49
2022-09-07T10:11:03.825Z,25.52
2022-09-07T10:12:07.023Z,25.56
2022-09-07T10:13:18.420Z,25.56
2022-09-07T10:14:25.575Z,25.60
2022-09-07T10:15:37.778Z,25.63
2022-09-07T10:16:42.392Z,25.76
2022-09-07T10:17:47.573Z,25.74
2022-09-07T10:18:56.541Z,25.75
2022-09-07T10:20:13.030Z,25.77
2022-09-07T10:21:23.700Z,25.79
2022-09-07T10:22:31.200Z,25.80
2022-09-07T10:23:32.497Z,25.83
2022-09-07T10:24:38.868Z,25.83
2022-09-07T10:25:41.444Z,25.87
2022-09-07T10:26:42.765Z,25.90
2022-09-07T10:27:44.096Z,25.96
2022-09-07T10:30:19.857Z,25.98
2022-09-07T10:31:24.974Z,25.99
2022-09-07T10:32:48.381Z,26.04
2022-09-07T10:35:34.268Z,26.24
2022-09-07T10:36:51.356Z,26.33
2022-09-07T10:37:56.934Z,26.35
2022-09-07T10:39:06.682Z,26.38
2022-09-07T10:40:16.776Z,26.36
2022-09-07T10:41:22.657Z,26.43
2022-09-07T10:42:29.247Z,26.47
2022-09-07T10:43:36.151Z,26.48
2022-09-07T10:45:03.930Z,26.50
2022-09-07T10:46:11.229Z,26.60
2022-09-07T10:47:30.682Z,26.66
2022-09-07T10:48:44.383Z,26.70
2022-09-07T10:51:33.086Z,26.83
2022-09-07T10:52:38.667Z,26.89
2022-09-07T10:54:29.883Z,27.01
2022-09-07T10:55:31.177Z,27.09
2022-09-07T10:56:35.363Z,27.17
2022-09-07T10:57:36.938Z,27.17
2022-09-07T10:59:04.218Z,27.12
2022-09-07T11:00:11.478Z,27.03
2022-09-07T11:01:12.964Z,27.04
2022-09-07T11:02:24.406Z,27.06
2022-09-07T11:03:31.918Z,27.12
2022-09-07T11:04:40.056Z,27.17
2022-09-07T11:05:44.417Z,27.20
2022-09-07T11:06:48.185Z,27.17
2022-09-07T11:07:58.688Z,27.14
2022-09-07T11:09:19.740Z,27.17
2022-09-07T11:10:26.915Z,27.18
2022-09-07T11:13:01.790Z,27.25
2022-09-07T11:14:13.430Z,27.29
2022-09-07T11:15:22.516Z,27.39
2022-09-07T11:17:52.055Z,27.49
2022-09-07T11:19:35.013Z,27.47
2022-09-07T11:20:22.208Z,27.51
2022-09-07T11:22:51.395Z,27.60
2022-09-07T11:24:03.132Z,27.65
2022-09-07T11:25:32.336Z,27.74
2022-09-07T11:26:39.317Z,27.77
2022-09-07T11:28:03.986Z,27.81
2022-09-07T11:29:31.116Z,27.85
2022-09-07T11:30:40.798Z,27.92
2022-09-07T11:31:45.351Z,27.90
2022-09-07T11:33:06.905Z,27.92
2022-09-07T11:34:24.305Z,28.01
2022-09-07T11:35:31.656Z,27.92
2022-09-07T11:36:34.748Z,27.93
2022-09-07T11:37:42.367Z,27.96
2022-09-07T11:38:57.161Z,27.95
2022-09-07T11:40:06.202Z,27.90
2022-09-07T11:41:26.376Z,27.82
2022-09-07T11:42:53.667Z,27.76
2022-09-07T11:43:58.347Z,27.73
2022-09-07T11:45:05.462Z,27.76
2022-09-07T11:46:06.775Z,27.81
2022-09-07T11:47:19.756Z,27.88
2022-09-07T11:48:30.970Z,27.92
2022-09-07T11:49:32.461Z,27.91
2022-09-07T11:50:36.679Z,28.06
2022-09-07T11:51:41.141Z,28.18
2022-09-07T11:52:45.863Z,28.31
2022-09-07T11:53:51.027Z,28.37
2022-09-07T11:54:57.372Z,28.46
2022-09-07T11:56:01.899Z,28.50
2022-09-07T11:57:06.052Z,28.50
2022-09-07T11:58:10.324Z,28.56
2022-09-07T11:59:14.629Z,28.65
2022-09-07T12:00:21.312Z,28.72
2022-09-07T12:01:22.579Z,28.72
2022-09-07T12:02:58.910Z,28.70
2022-09-07T12:04:08.634Z,28.60
2022-09-07T12:05:18.475Z,28.40
2022-09-07T12:06:38.490Z,28.35
2022-09-07T12:07:48.653Z,28.26
2022-09-07T12:09:02.175Z,28.11
2022-09-07T12:10:06.491Z,28.08
2022-09-07T12:11:19.105Z,28.14
2022-09-07T12:12:39.418Z,28.20
2022-09-07T12:13:59.564Z,28.20
2022-09-07T12:15:09.445Z,28.32
2022-09-07T12:16:19.157Z,28.40
2022-09-07T12:17:33.179Z,28.44
2022-09-07T12:19:01.592Z,28.45
2022-09-07T12:20:09.746Z,28.35
2022-09-07T12:21:29.892Z,28.19
2022-09-07T12:22:31.227Z,28.00
2022-09-07T12:23:33.320Z,27.97
2022-09-07T12:24:44.586Z,27.80
2022-09-07T12:25:47.215Z,27.85
2022-09-07T12:26:49.742Z,27.66
2022-09-07T12:27:51.646Z,27.58
2022-09-07T12:28:52.911Z,27.56
2022-09-07T12:29:57.187Z,27.51
2022-09-07T12:31:00.002Z,27.47
2022-09-07T12:33:43.477Z,27.76
2022-09-07T12:34:52.775Z,27.85
2022-09-07T12:35:54.309Z,28.02
2022-09-07T12:36:56.314Z,28.16
2022-09-07T12:38:01.784Z,28.23
2022-09-07T12:39:05.704Z,28.42
2022-09-07T12:40:26.076Z,28.39
2022-09-07T12:41:40.577Z,28.52
2022-09-07T12:42:41.910Z,28.54
2022-09-07T12:43:43.191Z,28.51
2022-09-07T12:44:44.726Z,28.49
2022-09-07T12:45:46.201Z,28.57
2022-09-07T12:46:50.486Z,28.57
2022-09-07T12:48:02.711Z,28.58
2022-09-07T12:49:16.268Z,28.61
2022-09-07T12:50:17.761Z,28.55
2022-09-07T12:52:46.890Z,28.46
2022-09-07T12:53:55.522Z,28.43
2022-09-07T12:55:26.513Z,28.47
2022-09-07T12:56:45.121Z,28.51
2022-09-07T12:57:54.335Z,28.62
2022-09-07T12:58:55.607Z,28.60
2022-09-07T13:00:03.578Z,28.66
2022-09-07T13:01:05.624Z,28.73
2022-09-07T13:02:09.881Z,28.71
2022-09-07T13:03:55.862Z,28.82
2022-09-07T13:05:15.821Z,28.83
2022-09-07T13:06:17.298Z,28.80
2022-09-07T13:07:21.776Z,28.83
2022-09-07T13:08:46.303Z,28.80
2022-09-07T13:09:57.676Z,28.77
2022-09-07T13:11:34.774Z,28.78
2022-09-07T13:12:53.919Z,28.69
2022-09-07T13:14:03.893Z,28.70
2022-09-07T13:15:05.998Z,28.63
2022-09-07T13:16:10.575Z,28.66
2022-09-07T13:17:32.993Z,28.64
2022-09-07T13:18:34.459Z,28.66
2022-09-07T13:19:50.787Z,28.76
2022-09-07T13:21:17.977Z,28.89
2022-09-07T13:22:35.426Z,29.15
2022-09-07T13:23:37.843Z,29.33
2022-09-07T13:24:49.380Z,29.40
2022-09-07T13:25:52.361Z,29.51
2022-09-07T13:26:58.514Z,29.54
2022-09-07T13:28:01.689Z,29.57
2022-09-07T13:29:04.715Z,29.45
2022-09-07T13:30:14.859Z,29.39
2022-09-07T13:31:24.957Z,29.32
2022-09-07T13:33:50.224Z,29.46
2022-09-07T13:34:51.474Z,29.50
2022-09-07T13:35:54.445Z,29.57
2022-09-07T13:36:55.998Z,29.52
2022-09-07T13:38:01.557Z,29.56
2022-09-07T13:39:08.770Z,29.55
2022-09-07T13:40:11.572Z,29.57
2022-09-07T13:41:15.227Z,29.54
2022-09-07T13:42:18.378Z,29.61
2022-09-07T13:43:21.150Z,29.68
2022-09-07T13:44:26.191Z,29.66
2022-09-07T13:45:34.403Z,29.73
2022-09-07T13:46:44.182Z,29.78
2022-09-07T13:48:02.779Z,29.68
2022-09-07T13:49:16.243Z,29.67
2022-09-07T13:50:22.390Z,29.60
2022-09-07T13:51:27.983Z,29.57
2022-09-07T13:52:29.248Z,29.54
2022-09-07T13:53:42.465Z,29.62
2022-09-07T13:55:02.379Z,29.69
2022-09-07T13:56:15.410Z,29.77
2022-09-07T13:57:25.650Z,29.69
2022-09-07T13:58:34.119Z,29.77
2022-09-07T13:59:35.490Z,29.89
2022-09-07T14:00:36.999Z,30.00
2022-09-07T14:01:42.814Z,30.05
2022-09-07T14:02:53.145Z,30.00
2022-09-07T14:03:58.949Z,29.84
2022-09-07T14:05:00.925Z,29.87
2022-09-07T14:06:20.607Z,29.84
2022-09-07T14:07:23.392Z,29.71
2022-09-07T14:08:26.475Z,29.65
2022-09-07T14:09:27.800Z,29.58
2022-09-07T14:10:29.124Z,29.58
2022-09-07T14:11:30.418Z,29.65
2022-09-07T14:12:31.792Z,29.62
2022-09-07T14:13:33.190Z,29.78
2022-09-07T14:14:34.490Z,29.84
2022-09-07T14:15:41.189Z,29.97
2022-09-07T14:16:44.378Z,30.02
2022-09-07T14:17:46.231Z,30.02
2022-09-07T14:18:47.522Z,29.90
2022-09-07T14:19:52.035Z,29.86
2022-09-07T14:20:53.458Z,29.84
2022-09-07T14:21:55.783Z,29.83
2022-09-07T14:22:57.300Z,29.83
2022-09-07T14:23:58.677Z,29.91
2022-09-07T14:25:01.555Z,29.96
2022-09-07T14:26:16.352Z,30.10
2022-09-07T14:27:26.870Z,30.07
2022-09-07T14:28:29.437Z,30.08
2022-09-07T14:29:32.192Z,30.08
2022-09-07T14:30:33.595Z,29.95
2022-09-07T14:31:35.828Z,29.97
2022-09-07T14:32:37.268Z,29.96
2022-09-07T14:33:43.647Z,29.81
2022-09-07T14:34:47.844Z,29.82
2022-09-07T14:35:50.519Z,29.92
2022-09-07T14:36:52.200Z,29.96
2022-09-07T14:37:54.799Z,29.89
2022-09-07T14:39:04.813Z,29.86
2022-09-07T14:40:07.204Z,29.74
2022-09-07T14:41:11.632Z,29.72
2022-09-07T14:42:15.281Z,29.72
2022-09-07T14:43:32.811Z,29.66
2022-09-07T14:44:35.545Z,29.68
2022-09-07T14:45:37.796Z,29.59
2022-09-07T14:46:39.936Z,29.48